createdAt,value
2016-10-25T00:00:27.643Z,10.17
2016-10-25T00:01:27.365Z,10.18
2016-10-25T00:02:42.302Z,10.2
2016-10-25T00:03:27.399Z,10.22
2016-10-25T00:04:42.348Z,10.25
2016-10-25T00:05:27.693Z,10.25
2016-10-25T00:06:27.467Z,10.22
2016-10-25T00:07:27.484Z,10.15
2016-10-25T00:08:27.509Z,10.17
2016-10-25T00:09:27.530Z,10.23
2016-10-25T00:10:27.552Z,10.17
2016-10-25T00:11:27.569Z,10.25
2016-10-25T00:13:27.614Z,10.15
2016-10-25T00:14:27.662Z,10.18
2016-10-25T00:15:27.654Z,10.23
2016-10-25T00:16:27.675Z,10.18
2016-10-25T00:17:27.694Z,10.22
2016-10-25T00:18:27.726Z,10.17
2016-10-25T00:19:42.666Z,10.11
2016-10-25T00:20:27.763Z,10.15
2016-10-25T00:21:27.777Z,10.14
2016-10-25T00:22:27.800Z,10.07
2016-10-25T00:24:27.841Z,10.23
2016-10-25T00:25:27.867Z,10.15
2016-10-25T00:26:27.887Z,10.12
2016-10-25T00:27:27.927Z,10.22
2016-10-25T00:28:27.928Z,10.15
2016-10-25T00:29:27.949Z,10.07
2016-10-25T00:30:27.967Z,10.17
2016-10-25T00:31:27.991Z,10.14
2016-10-25T00:32:42.937Z,10.04
2016-10-25T00:34:28.064Z,10.09
2016-10-25T00:35:43.247Z,10.09
2016-10-25T00:36:28.098Z,10.09
2016-10-25T00:37:28.128Z,10.02
2016-10-25T00:38:28.145Z,10.01
2016-10-25T00:39:28.164Z,10.02
2016-10-25T00:40:28.177Z,10.05
2016-10-25T00:41:28.203Z,10.07
2016-10-25T00:42:28.524Z,10.12
2016-10-25T00:43:28.246Z,10.12
2016-10-25T00:44:28.270Z,9.97
2016-10-25T00:45:28.285Z,9.91
2016-10-25T00:47:28.329Z,10.04
2016-10-25T00:48:28.345Z,9.97
2016-10-25T00:49:28.374Z,10.04
2016-10-25T00:50:28.397Z,10.07
2016-10-25T00:51:43.365Z,10.05
2016-10-25T00:52:28.439Z,9.97
2016-10-25T00:53:28.457Z,10.02
2016-10-25T00:54:28.478Z,9.99
2016-10-25T00:56:28.515Z,9.94
2016-10-25T00:58:28.560Z,10.01
2016-10-25T00:59:28.575Z,9.97
2016-10-25T01:00:28.613Z,9.9
2016-10-25T01:01:28.622Z,9.93
2016-10-25T01:02:43.567Z,9.79
2016-10-25T01:03:43.587Z,9.83
2016-10-25T01:04:28.690Z,9.96
2016-10-25T01:05:28.709Z,9.79
2016-10-25T01:06:28.729Z,9.99
2016-10-25T01:07:43.674Z,9.9
2016-10-25T01:08:28.774Z,9.93
2016-10-25T01:09:28.794Z,9.93
2016-10-25T01:10:28.814Z,9.91
2016-10-25T01:11:28.835Z,9.91
2016-10-25T01:12:28.856Z,9.9
2016-10-25T01:13:28.868Z,9.86
2016-10-25T01:14:28.893Z,9.84
2016-10-25T01:15:28.914Z,9.86
2016-10-25T01:16:28.934Z,9.81
2016-10-25T01:17:29.293Z,9.81
2016-10-25T01:19:28.999Z,9.76
2016-10-25T01:20:29.269Z,9.79
2016-10-25T01:21:29.292Z,9.83
2016-10-25T01:22:29.064Z,9.76
2016-10-25T01:23:44.008Z,9.76
2016-10-25T01:24:44.023Z,9.86
2016-10-25T01:25:29.129Z,9.86
2016-10-25T01:26:29.145Z,9.83
2016-10-25T01:27:29.170Z,9.75
2016-10-25T01:28:29.194Z,9.76
2016-10-25T01:29:29.201Z,9.71
2016-10-25T01:30:29.478Z,9.72
2016-10-25T01:31:29.245Z,9.81
2016-10-25T01:32:29.270Z,9.75
2016-10-25T01:33:29.295Z,9.84
2016-10-25T01:34:29.305Z,9.83
2016-10-25T01:35:29.339Z,9.83
2016-10-25T01:37:29.384Z,9.79
2016-10-25T01:38:29.395Z,9.78
2016-10-25T01:39:44.335Z,9.75
2016-10-25T01:40:29.435Z,9.83
2016-10-25T01:41:29.456Z,9.78
2016-10-25T01:42:29.512Z,9.76
2016-10-25T01:43:29.492Z,9.78
2016-10-25T01:44:29.519Z,9.74
2016-10-25T01:45:29.533Z,9.86
2016-10-25T01:47:29.585Z,9.84
2016-10-25T01:48:29.604Z,9.74
2016-10-25T01:49:29.620Z,9.79
2016-10-25T01:50:29.646Z,9.74
2016-10-25T01:52:29.688Z,9.81
2016-10-25T01:53:29.712Z,9.71
2016-10-25T01:54:44.650Z,9.78
2016-10-25T01:55:29.751Z,9.76
2016-10-25T01:56:29.771Z,9.75
2016-10-25T01:57:29.785Z,9.87
2016-10-25T01:58:29.813Z,9.76
2016-10-25T01:59:29.842Z,9.75
2016-10-25T02:00:30.148Z,9.76
2016-10-25T02:01:29.868Z,9.79
2016-10-25T02:02:29.892Z,9.78
2016-10-25T02:03:29.909Z,9.74
2016-10-25T02:04:29.946Z,9.86
2016-10-25T02:05:29.954Z,9.78
2016-10-25T02:06:30.262Z,9.76
2016-10-25T02:07:29.995Z,9.84
2016-10-25T02:08:30.015Z,9.86
2016-10-25T02:09:30.035Z,9.9
2016-10-25T02:10:30.140Z,9.84
2016-10-25T02:11:45.000Z,9.78
2016-10-25T02:12:30.107Z,9.81
2016-10-25T02:13:30.373Z,9.89
2016-10-25T02:14:30.144Z,9.93
2016-10-25T02:15:30.169Z,9.9
2016-10-25T02:16:30.189Z,9.89
2016-10-25T02:17:31.457Z,9.81
2016-10-25T02:18:30.221Z,9.75
2016-10-25T02:19:30.248Z,9.81
2016-10-25T02:20:45.195Z,9.81
2016-10-25T02:21:30.294Z,9.75
2016-10-25T02:22:30.311Z,9.76
2016-10-25T02:23:45.253Z,9.78
2016-10-25T02:24:45.273Z,9.86
2016-10-25T02:25:30.370Z,9.76
2016-10-25T02:26:45.318Z,9.74
2016-10-25T02:27:30.422Z,9.81
2016-10-25T02:28:30.442Z,9.84
2016-10-25T02:29:30.462Z,9.86
2016-10-25T02:30:30.481Z,9.84
2016-10-25T02:31:30.495Z,9.87
2016-10-25T02:32:30.522Z,9.76
2016-10-25T02:33:30.578Z,9.75
2016-10-25T02:34:30.560Z,9.76
2016-10-25T02:35:30.892Z,9.89
2016-10-25T02:36:30.599Z,9.84
2016-10-25T02:37:30.626Z,9.74
2016-10-25T02:38:30.640Z,9.83
2016-10-25T02:39:31.269Z,9.79
2016-10-25T02:40:30.685Z,9.79
2016-10-25T02:41:30.711Z,9.78
2016-10-25T02:42:45.648Z,9.83
2016-10-25T02:43:30.747Z,9.89
2016-10-25T02:44:45.688Z,9.81
2016-10-25T02:45:30.789Z,9.76
2016-10-25T02:46:30.817Z,9.76
2016-10-25T02:47:30.834Z,9.9
2016-10-25T02:48:30.890Z,9.89
2016-10-25T02:49:30.874Z,9.83
2016-10-25T02:50:30.891Z,9.79
2016-10-25T02:51:30.911Z,9.86
2016-10-25T02:52:30.945Z,9.83
2016-10-25T02:54:30.982Z,9.83
2016-10-25T02:55:31.002Z,9.72
2016-10-25T02:57:31.040Z,9.74
2016-10-25T02:58:46.014Z,9.84
2016-10-25T02:59:31.082Z,9.66
2016-10-25T03:00:31.094Z,9.74
2016-10-25T03:01:31.117Z,9.72
2016-10-25T03:02:31.142Z,9.74
2016-10-25T03:03:31.161Z,9.66
2016-10-25T03:04:31.184Z,9.69
2016-10-25T03:05:31.213Z,9.69
2016-10-25T03:06:31.223Z,9.66
2016-10-25T03:08:31.265Z,9.86
2016-10-25T03:09:31.279Z,9.79
2016-10-25T03:10:31.302Z,9.74
2016-10-25T03:11:31.332Z,9.84
2016-10-25T03:12:31.344Z,9.76
2016-10-25T03:13:31.371Z,9.69
2016-10-25T03:14:46.313Z,9.74
2016-10-25T03:15:31.412Z,9.72
2016-10-25T03:16:31.431Z,9.81
2016-10-25T03:17:31.451Z,9.87
2016-10-25T03:18:31.467Z,9.69
2016-10-25T03:19:31.496Z,9.79
2016-10-25T03:20:31.509Z,9.83
2016-10-25T03:21:31.534Z,9.74
2016-10-25T03:22:31.553Z,9.79
2016-10-25T03:23:31.575Z,9.72
2016-10-25T03:24:31.593Z,9.69
2016-10-25T03:25:31.615Z,9.69
2016-10-25T03:26:31.630Z,9.69
2016-10-25T03:27:46.579Z,9.69
2016-10-25T03:28:31.676Z,9.76
2016-10-25T03:29:46.622Z,9.86
2016-10-25T03:30:31.720Z,9.79
2016-10-25T03:31:31.744Z,9.79
2016-10-25T03:32:31.760Z,9.81
2016-10-25T03:33:31.786Z,9.68
2016-10-25T03:34:31.808Z,9.86
2016-10-25T03:35:31.850Z,9.76
2016-10-25T03:36:31.844Z,9.86
2016-10-25T03:37:31.874Z,9.72
2016-10-25T03:38:31.881Z,9.66
2016-10-25T03:39:31.907Z,9.71
2016-10-25T03:40:31.925Z,9.69
2016-10-25T03:41:46.871Z,9.86
2016-10-25T03:42:31.973Z,9.86
2016-10-25T03:43:31.999Z,9.78
2016-10-25T03:44:46.934Z,9.78
2016-10-25T03:45:32.035Z,9.76
2016-10-25T03:46:46.970Z,9.68
2016-10-25T03:47:32.071Z,9.72
2016-10-25T03:48:32.092Z,9.75
2016-10-25T03:49:32.116Z,9.87
2016-10-25T03:50:32.137Z,9.75
2016-10-25T03:51:32.157Z,9.65
2016-10-25T03:52:32.172Z,9.79
2016-10-25T03:53:32.192Z,9.89
2016-10-25T03:55:32.239Z,9.83
2016-10-25T03:56:32.260Z,9.9
2016-10-25T03:59:32.321Z,9.71
2016-10-25T04:00:32.350Z,9.76
2016-10-25T04:01:47.286Z,9.87
2016-10-25T04:02:32.382Z,9.78
2016-10-25T04:03:32.407Z,9.83
2016-10-25T04:04:32.421Z,9.79
2016-10-25T04:05:32.442Z,9.83
2016-10-25T04:06:32.471Z,9.66
2016-10-25T04:07:32.488Z,9.75
2016-10-25T04:08:32.508Z,9.78
2016-10-25T04:09:32.523Z,9.75
2016-10-25T04:10:32.552Z,9.76
2016-10-25T04:13:47.534Z,9.78
2016-10-25T04:14:32.636Z,9.93
2016-10-25T04:15:32.658Z,9.86
2016-10-25T04:16:32.675Z,9.86
2016-10-25T04:17:47.613Z,9.83
2016-10-25T04:18:32.712Z,9.93
2016-10-25T04:19:32.737Z,9.9
2016-10-25T04:20:32.760Z,9.84
2016-10-25T04:21:32.777Z,9.93
2016-10-25T04:22:32.800Z,9.89
2016-10-25T04:23:32.817Z,9.93
2016-10-25T04:24:32.840Z,9.93
2016-10-25T04:25:32.863Z,9.97
2016-10-25T04:26:32.885Z,9.94
2016-10-25T04:27:32.906Z,9.96
2016-10-25T04:28:32.927Z,9.94
2016-10-25T04:29:32.941Z,10.01
2016-10-25T04:30:32.965Z,9.96
2016-10-25T04:32:33.008Z,9.96
2016-10-25T04:34:47.969Z,9.83
2016-10-25T04:35:33.067Z,9.86
2016-10-25T04:36:33.087Z,9.84
2016-10-25T04:37:33.115Z,9.81
2016-10-25T04:38:33.127Z,9.83
2016-10-25T04:39:33.155Z,9.79
2016-10-25T04:40:33.174Z,9.87
2016-10-25T04:41:33.191Z,9.87
2016-10-25T04:43:33.238Z,9.87
2016-10-25T04:44:33.281Z,9.87
2016-10-25T04:45:33.278Z,9.83
2016-10-25T04:46:33.351Z,9.78
2016-10-25T04:47:33.321Z,9.75
2016-10-25T04:48:33.373Z,9.89
2016-10-25T04:49:48.286Z,9.9
2016-10-25T04:50:33.418Z,9.91
2016-10-25T04:51:33.409Z,9.86
2016-10-25T04:52:33.432Z,9.93
2016-10-25T04:53:33.445Z,9.96
2016-10-25T04:54:33.468Z,9.97
2016-10-25T04:55:33.484Z,9.87
2016-10-25T04:56:33.502Z,9.87
2016-10-25T04:57:33.523Z,9.76
2016-10-25T04:58:33.543Z,9.75
2016-10-25T04:59:34.060Z,9.83
2016-10-25T05:00:33.840Z,9.87
2016-10-25T05:01:33.617Z,9.84
2016-10-25T05:02:33.628Z,9.86
2016-10-25T05:03:33.672Z,9.76
2016-10-25T05:04:48.596Z,9.81
2016-10-25T05:05:33.694Z,9.89
2016-10-25T05:06:33.722Z,9.78
2016-10-25T05:07:33.738Z,9.78
2016-10-25T05:08:33.766Z,9.75
2016-10-25T05:09:33.777Z,9.76
2016-10-25T05:10:33.794Z,9.93
2016-10-25T05:11:33.829Z,9.91
2016-10-25T05:12:33.848Z,9.9
2016-10-25T05:13:33.893Z,9.91
2016-10-25T05:14:33.890Z,9.97
2016-10-25T05:15:34.207Z,9.94
2016-10-25T05:16:33.928Z,10.01
2016-10-25T05:18:33.969Z,10.04
2016-10-25T05:19:33.990Z,10.01
2016-10-25T05:20:34.012Z,10.02
2016-10-25T05:21:34.025Z,10.08
2016-10-25T05:22:34.054Z,10.04
2016-10-25T05:23:34.108Z,9.99
2016-10-25T05:24:34.089Z,9.9
2016-10-25T05:25:34.106Z,9.89
2016-10-25T05:26:34.131Z,9.94
2016-10-25T05:27:34.201Z,9.97
2016-10-25T05:29:34.196Z,10.02
2016-10-25T05:30:34.225Z,10.01
2016-10-25T05:31:34.233Z,9.93
2016-10-25T05:32:34.264Z,9.99
2016-10-25T05:33:34.282Z,9.93
2016-10-25T05:34:34.298Z,9.9
2016-10-25T05:35:34.320Z,9.96
2016-10-25T05:36:49.264Z,10.01
2016-10-25T05:37:34.363Z,9.99
2016-10-25T05:38:34.384Z,10.02
2016-10-25T05:39:34.402Z,9.93
2016-10-25T05:40:34.427Z,10.05
2016-10-25T05:41:34.452Z,10.07
2016-10-25T05:42:34.471Z,10.08
2016-10-25T05:43:34.489Z,10.08
2016-10-25T05:44:34.506Z,10.07
2016-10-25T05:46:34.547Z,9.99
2016-10-25T05:47:34.565Z,10.02
2016-10-25T05:48:34.592Z,10.02
2016-10-25T05:49:34.609Z,10.02
2016-10-25T05:50:34.631Z,10.08
2016-10-25T05:51:34.651Z,10.09
2016-10-25T05:52:49.596Z,10.04
2016-10-25T05:53:34.692Z,10.05
2016-10-25T05:54:34.717Z,10.08
2016-10-25T05:55:34.738Z,10.05
2016-10-25T05:56:34.765Z,9.97
2016-10-25T05:57:34.773Z,9.96
2016-10-25T05:58:34.803Z,9.99
2016-10-25T05:59:34.830Z,10.04
2016-10-25T06:00:34.840Z,9.93
2016-10-25T06:01:34.861Z,9.97
2016-10-25T06:02:34.879Z,10.07
2016-10-25T06:03:34.911Z,10.02
2016-10-25T06:04:34.920Z,10.05
2016-10-25T06:05:34.947Z,10.08
2016-10-25T06:06:34.964Z,10.02
2016-10-25T06:07:34.988Z,10.12
2016-10-25T06:08:49.933Z,10.02
2016-10-25T06:09:49.948Z,9.99
2016-10-25T06:10:35.049Z,9.99
2016-10-25T06:11:35.068Z,9.97
2016-10-25T06:12:35.096Z,9.99
2016-10-25T06:13:35.112Z,10.05
2016-10-25T06:14:35.137Z,10.01
2016-10-25T06:15:35.160Z,9.96
2016-10-25T06:16:35.182Z,9.96
2016-10-25T06:17:35.198Z,9.94
2016-10-25T06:18:35.219Z,9.93
2016-10-25T06:19:50.165Z,9.91
2016-10-25T06:20:35.259Z,9.84
2016-10-25T06:21:35.274Z,9.94
2016-10-25T06:22:35.355Z,9.89
2016-10-25T06:24:50.263Z,9.83
2016-10-25T06:25:35.369Z,9.96
2016-10-25T06:26:35.389Z,9.96
2016-10-25T06:27:35.412Z,9.97
2016-10-25T06:28:35.431Z,9.99
2016-10-25T06:29:35.454Z,9.97
2016-10-25T06:30:35.471Z,9.76
2016-10-25T06:31:35.491Z,9.79
2016-10-25T06:32:35.511Z,9.86
2016-10-25T06:33:35.529Z,9.87
2016-10-25T06:34:35.551Z,9.84
2016-10-25T06:35:35.573Z,9.71
2016-10-25T06:36:35.591Z,9.87
2016-10-25T06:37:35.609Z,9.84
2016-10-25T06:38:35.631Z,9.94
2016-10-25T06:39:50.581Z,9.97
2016-10-25T06:40:35.681Z,9.9
2016-10-25T06:41:35.704Z,9.89
2016-10-25T06:42:35.724Z,9.9
2016-10-25T06:43:35.735Z,9.91
2016-10-25T06:45:35.782Z,9.9
2016-10-25T06:46:35.799Z,9.91
2016-10-25T06:47:35.823Z,9.84
2016-10-25T06:48:35.846Z,9.87
2016-10-25T06:49:35.871Z,9.94
2016-10-25T06:50:35.931Z,9.96
2016-10-25T06:51:35.904Z,9.96
2016-10-25T06:52:35.934Z,9.89
2016-10-25T06:53:50.869Z,9.91
2016-10-25T06:54:35.970Z,9.84
2016-10-25T06:55:50.914Z,9.84
2016-10-25T06:56:36.013Z,9.76
2016-10-25T06:57:36.028Z,9.87
2016-10-25T06:58:36.056Z,9.9
2016-10-25T06:59:36.071Z,9.96
2016-10-25T07:00:36.096Z,9.94
2016-10-25T07:01:36.121Z,9.97
2016-10-25T07:02:36.130Z,10.02
2016-10-25T07:03:36.151Z,9.91
2016-10-25T07:04:36.177Z,9.93
2016-10-25T07:05:51.124Z,9.94
2016-10-25T07:06:36.220Z,9.97
2016-10-25T07:07:51.166Z,9.94
2016-10-25T07:08:36.261Z,9.84
2016-10-25T07:09:36.283Z,9.91
2016-10-25T07:10:36.304Z,9.91
2016-10-25T07:11:51.249Z,10.04
2016-10-25T07:12:36.346Z,10.08
2016-10-25T07:13:36.366Z,10.04
2016-10-25T07:14:36.384Z,10.07
2016-10-25T07:15:36.407Z,10.02
2016-10-25T07:16:36.428Z,10.02
2016-10-25T07:17:36.455Z,10.05
2016-10-25T07:18:36.473Z,10.09
2016-10-25T07:19:36.493Z,10.05
2016-10-25T07:20:36.823Z,10.01
2016-10-25T07:22:36.551Z,9.97
2016-10-25T07:23:36.576Z,9.84
2016-10-25T07:24:36.601Z,9.99
2016-10-25T07:25:36.619Z,9.89
2016-10-25T07:26:51.559Z,9.97
2016-10-25T07:27:51.578Z,10.07
2016-10-25T07:28:36.676Z,10.12
2016-10-25T07:29:36.701Z,10.07
2016-10-25T07:30:36.718Z,9.94
2016-10-25T07:31:36.747Z,10.02
2016-10-25T07:32:36.762Z,10.02
2016-10-25T07:33:36.794Z,10.01
2016-10-25T07:34:36.836Z,10.09
2016-10-25T07:35:36.823Z,10.07
2016-10-25T07:36:36.842Z,10.04
2016-10-25T07:37:51.793Z,10.04
2016-10-25T07:39:36.910Z,10.11
2016-10-25T07:40:36.934Z,10.14
2016-10-25T07:41:36.958Z,10.08
2016-10-25T07:42:36.974Z,10.05
2016-10-25T07:43:51.915Z,10.15
2016-10-25T07:44:51.933Z,10.15
2016-10-25T07:45:37.037Z,10.15
2016-10-25T07:46:37.079Z,10.14
2016-10-25T07:47:37.076Z,10.25
2016-10-25T07:48:37.097Z,10.23
2016-10-25T07:49:37.120Z,10.29
2016-10-25T07:50:37.137Z,10.18
2016-10-25T07:51:37.168Z,10.15
2016-10-25T07:52:37.197Z,10.25
2016-10-25T07:53:37.203Z,10.27
2016-10-25T07:54:37.224Z,10.33
2016-10-25T07:55:37.246Z,10.38
2016-10-25T07:56:37.268Z,10.42
2016-10-25T07:57:37.289Z,10.34
2016-10-25T07:58:37.316Z,10.44
2016-10-25T07:59:52.253Z,10.47
2016-10-25T08:00:37.353Z,10.51
2016-10-25T08:01:37.375Z,10.48
2016-10-25T08:02:37.397Z,10.44
2016-10-25T08:03:37.411Z,10.38
2016-10-25T08:04:37.684Z,10.44
2016-10-25T08:05:37.456Z,10.52
2016-10-25T08:06:37.480Z,10.47
2016-10-25T08:07:37.506Z,10.51
2016-10-25T08:08:37.528Z,10.42
2016-10-25T08:09:37.542Z,10.47
2016-10-25T08:10:52.489Z,10.42
2016-10-25T08:12:37.607Z,10.6
2016-10-25T08:13:37.633Z,10.61
2016-10-25T08:14:52.570Z,10.61
2016-10-25T08:15:37.668Z,10.63
2016-10-25T08:16:37.700Z,10.53
2016-10-25T08:17:37.713Z,10.6
2016-10-25T08:18:37.994Z,10.7
2016-10-25T08:19:37.757Z,10.67
2016-10-25T08:20:37.780Z,10.67
2016-10-25T08:21:37.795Z,10.45
2016-10-25T08:22:37.825Z,10.6
2016-10-25T08:23:37.841Z,10.64
2016-10-25T08:24:37.864Z,10.59
2016-10-25T08:25:37.890Z,10.51
2016-10-25T08:26:37.911Z,10.55
2016-10-25T08:27:37.957Z,10.44
2016-10-25T08:28:37.950Z,10.59
2016-10-25T08:29:52.892Z,10.61
2016-10-25T08:30:37.993Z,10.66
2016-10-25T08:31:38.011Z,10.63
2016-10-25T08:32:38.029Z,10.7
2016-10-25T08:33:38.051Z,10.66
2016-10-25T08:34:38.076Z,10.78
2016-10-25T08:35:38.101Z,10.78
2016-10-25T08:36:38.127Z,10.82
2016-10-25T08:37:53.070Z,10.99
2016-10-25T08:38:38.165Z,11
2016-10-25T08:39:38.184Z,11.09
2016-10-25T08:40:38.203Z,11.07
2016-10-25T08:41:53.153Z,11.06
2016-10-25T08:42:38.247Z,11.03
2016-10-25T08:43:38.273Z,11.1
2016-10-25T08:44:38.296Z,11.15
2016-10-25T08:45:38.312Z,11.1
2016-10-25T08:46:53.257Z,11.07
2016-10-25T08:47:38.393Z,11.06
2016-10-25T08:48:38.391Z,11.06
2016-10-25T08:49:38.401Z,10.99
2016-10-25T08:50:38.416Z,10.88
2016-10-25T08:51:38.444Z,10.92
2016-10-25T08:52:38.464Z,11.03
2016-10-25T08:53:38.588Z,11.04
2016-10-25T08:55:38.524Z,11.11
2016-10-25T08:56:38.556Z,11.11
2016-10-25T08:57:53.497Z,11.04
2016-10-25T08:58:53.520Z,11.02
2016-10-25T08:59:53.539Z,10.94
2016-10-25T09:00:54.664Z,10.99
2016-10-25T09:01:38.659Z,11.07
2016-10-25T09:02:53.603Z,10.99
2016-10-25T09:03:38.702Z,11.03
2016-10-25T09:04:38.725Z,10.99
2016-10-25T09:05:38.748Z,11.06
2016-10-25T09:06:38.782Z,11.09
2016-10-25T09:07:38.783Z,11.1
2016-10-25T09:08:38.813Z,11.17
2016-10-25T09:09:38.841Z,11.15
2016-10-25T09:10:38.851Z,11.19
2016-10-25T09:11:38.876Z,11.24
2016-10-25T09:12:38.897Z,11.15
2016-10-25T09:13:39.239Z,11.09
2016-10-25T09:14:38.945Z,11.17
2016-10-25T09:15:53.889Z,11.36
2016-10-25T09:16:38.988Z,11.39
2016-10-25T09:17:39.009Z,11.4
2016-10-25T09:18:53.954Z,11.54
2016-10-25T09:19:39.048Z,11.57
2016-10-25T09:20:39.076Z,11.51
2016-10-25T09:21:39.101Z,11.49
2016-10-25T09:22:39.110Z,11.54
2016-10-25T09:23:39.145Z,11.57
2016-10-25T09:24:39.167Z,11.6
2016-10-25T09:26:39.199Z,11.39
2016-10-25T09:28:39.253Z,11.43
2016-10-25T09:29:39.264Z,11.46
2016-10-25T09:30:39.296Z,11.24
2016-10-25T09:31:39.319Z,11.28
2016-10-25T09:32:39.341Z,11.18
2016-10-25T09:33:54.278Z,11.21
2016-10-25T09:34:54.304Z,11.19
2016-10-25T09:35:39.406Z,11.22
2016-10-25T09:36:39.781Z,11.33
2016-10-25T09:38:39.475Z,11.37
2016-10-25T09:39:39.497Z,11.24
2016-10-25T09:40:39.515Z,11.24
2016-10-25T09:41:39.535Z,11.33
2016-10-25T09:42:39.558Z,11.4
2016-10-25T09:43:39.579Z,11.46
2016-10-25T09:44:39.598Z,11.49
2016-10-25T09:45:39.629Z,11.44
2016-10-25T09:46:39.646Z,11.49
2016-10-25T09:47:39.672Z,11.54
2016-10-25T09:48:39.691Z,11.55
2016-10-25T09:49:54.635Z,11.46
2016-10-25T09:50:39.733Z,11.55
2016-10-25T09:51:54.674Z,11.55
2016-10-25T09:52:39.774Z,11.65
2016-10-25T09:53:39.801Z,11.73
2016-10-25T09:54:39.822Z,11.79
2016-10-25T09:55:39.842Z,11.67
2016-10-25T09:56:39.864Z,11.7
2016-10-25T09:57:39.887Z,11.72
2016-10-25T09:58:39.914Z,11.73
2016-10-25T09:59:54.856Z,11.72
2016-10-25T10:01:39.982Z,11.79
2016-10-25T10:02:40.001Z,11.69
2016-10-25T10:03:40.029Z,11.73
2016-10-25T10:04:40.051Z,11.65
2016-10-25T10:05:40.074Z,11.64
2016-10-25T10:06:40.089Z,11.52
2016-10-25T10:07:40.113Z,11.65
2016-10-25T10:08:40.161Z,11.54
2016-10-25T10:09:40.152Z,11.44
2016-10-25T10:10:40.179Z,11.49
2016-10-25T10:11:40.201Z,11.44
2016-10-25T10:12:40.216Z,11.49
2016-10-25T10:13:40.244Z,11.61
2016-10-25T10:14:40.266Z,11.57
2016-10-25T10:15:40.287Z,11.57
2016-10-25T10:16:40.312Z,11.57
2016-10-25T10:17:40.328Z,11.43
2016-10-25T10:18:40.652Z,11.46
2016-10-25T10:19:40.384Z,11.39
2016-10-25T10:20:40.395Z,11.42
2016-10-25T10:21:55.341Z,11.55
2016-10-25T10:22:40.444Z,11.54
2016-10-25T10:23:40.464Z,11.55
2016-10-25T10:24:40.485Z,11.55
2016-10-25T10:25:40.512Z,11.46
2016-10-25T10:26:40.532Z,11.52
2016-10-25T10:27:40.556Z,11.61
2016-10-25T10:28:40.573Z,11.54
2016-10-25T10:29:40.597Z,11.46
2016-10-25T10:30:40.622Z,11.49
2016-10-25T10:31:40.682Z,11.47
2016-10-25T10:32:40.660Z,11.55
2016-10-25T10:33:40.686Z,11.4
2016-10-25T10:35:40.733Z,11.33
2016-10-25T10:36:40.751Z,11.43
2016-10-25T10:37:55.695Z,11.44
2016-10-25T10:38:40.792Z,11.43
2016-10-25T10:39:41.129Z,11.43
2016-10-25T10:40:40.863Z,11.27
2016-10-25T10:41:40.859Z,11.36
2016-10-25T10:42:40.886Z,11.24
2016-10-25T10:43:40.907Z,11.19
2016-10-25T10:44:40.936Z,11.32
2016-10-25T10:45:40.952Z,11.35
2016-10-25T10:46:40.970Z,11.35
2016-10-25T10:47:40.990Z,11.43
2016-10-25T10:49:41.042Z,11.4
2016-10-25T10:50:42.164Z,11.25
2016-10-25T10:51:56.003Z,11.35
2016-10-25T10:53:56.050Z,11.29
2016-10-25T10:54:41.145Z,11.36
2016-10-25T10:55:41.174Z,11.35
2016-10-25T10:56:41.186Z,11.36
2016-10-25T10:57:41.211Z,11.35
2016-10-25T10:58:41.231Z,11.29
2016-10-25T10:59:41.257Z,11.37
2016-10-25T11:00:41.304Z,11.32
2016-10-25T11:01:41.301Z,11.35
2016-10-25T11:02:41.322Z,11.35
2016-10-25T11:03:41.355Z,11.25
2016-10-25T11:04:41.391Z,11.33
2016-10-25T11:05:41.397Z,11.29
2016-10-25T11:06:41.407Z,11.44
2016-10-25T11:07:41.430Z,11.49
2016-10-25T11:08:41.461Z,11.57
2016-10-25T11:09:56.404Z,11.42
2016-10-25T11:10:41.501Z,11.54
2016-10-25T11:11:41.522Z,11.46
2016-10-25T11:12:41.545Z,11.42
2016-10-25T11:13:41.567Z,11.4
2016-10-25T11:14:41.588Z,11.51
2016-10-25T11:15:42.557Z,11.57
2016-10-25T11:16:41.631Z,11.47
2016-10-25T11:17:41.650Z,11.36
2016-10-25T11:18:41.669Z,11.37
2016-10-25T11:19:41.694Z,11.25
2016-10-25T11:20:41.728Z,11.33
2016-10-25T11:21:41.751Z,11.33
2016-10-25T11:22:41.764Z,11.28
2016-10-25T11:23:41.786Z,11.28
2016-10-25T11:24:56.733Z,11.29
2016-10-25T11:25:41.830Z,11.27
2016-10-25T11:26:41.856Z,11.33
2016-10-25T11:27:41.868Z,11.22
2016-10-25T11:28:41.903Z,11.28
2016-10-25T11:29:41.914Z,11.39
2016-10-25T11:30:41.943Z,11.42
2016-10-25T11:31:41.959Z,11.49
2016-10-25T11:32:50.352Z,11.44
2016-10-25T11:34:42.024Z,11.62
2016-10-25T11:35:42.053Z,11.52
2016-10-25T11:36:42.115Z,11.36
2016-10-25T11:37:42.098Z,11.39
2016-10-25T11:38:42.124Z,11.46
2016-10-25T11:39:42.141Z,11.42
2016-10-25T11:40:42.190Z,11.52
2016-10-25T11:41:57.100Z,11.6
2016-10-25T11:42:42.204Z,11.6
2016-10-25T11:43:42.228Z,11.49
2016-10-25T11:44:42.244Z,11.46
2016-10-25T11:45:42.267Z,11.43
2016-10-25T11:46:42.295Z,11.39
2016-10-25T11:47:42.314Z,11.42
2016-10-25T11:48:42.337Z,11.39
2016-10-25T11:49:42.358Z,11.39
2016-10-25T11:50:42.387Z,11.42
2016-10-25T11:51:42.709Z,11.51
2016-10-25T11:52:42.423Z,11.57
2016-10-25T11:53:42.448Z,11.57
2016-10-25T11:54:42.465Z,11.58
2016-10-25T11:55:42.496Z,11.37
2016-10-25T11:56:57.437Z,11.44
2016-10-25T11:57:42.535Z,11.42
2016-10-25T11:58:42.556Z,11.43
2016-10-25T11:59:42.585Z,11.43
2016-10-25T12:00:42.602Z,11.44
2016-10-25T12:01:42.623Z,11.49
2016-10-25T12:02:42.646Z,11.43
2016-10-25T12:03:42.671Z,11.46
2016-10-25T12:04:42.692Z,11.55
2016-10-25T12:06:42.739Z,11.75
2016-10-25T12:07:42.763Z,11.72
2016-10-25T12:08:43.033Z,11.65
2016-10-25T12:09:42.799Z,11.62
2016-10-25T12:10:42.833Z,11.73
2016-10-25T12:11:42.849Z,11.7
2016-10-25T12:12:57.793Z,11.73
2016-10-25T12:13:43.143Z,11.7
2016-10-25T12:14:42.913Z,11.69
2016-10-25T12:15:42.941Z,11.67
2016-10-25T12:16:42.962Z,11.61
2016-10-25T12:17:42.983Z,11.58
2016-10-25T12:18:43.002Z,11.49
2016-10-25T12:19:43.022Z,11.57
2016-10-25T12:20:43.054Z,11.52
2016-10-25T12:21:43.081Z,11.62
2016-10-25T12:22:43.094Z,11.64
2016-10-25T12:23:43.115Z,11.64
2016-10-25T12:24:43.139Z,11.75
2016-10-25T12:25:43.161Z,11.7
2016-10-25T12:26:43.182Z,11.69
2016-10-25T12:28:58.143Z,11.69
2016-10-25T12:29:43.552Z,11.65
2016-10-25T12:30:43.275Z,11.58
2016-10-25T12:31:43.292Z,11.57
2016-10-25T12:32:43.312Z,11.6
2016-10-25T12:33:43.336Z,11.6
2016-10-25T12:34:43.352Z,11.46
2016-10-25T12:35:43.378Z,11.58
2016-10-25T12:36:43.403Z,11.44
2016-10-25T12:37:43.424Z,11.46
2016-10-25T12:38:58.369Z,11.39
2016-10-25T12:39:58.394Z,11.35
2016-10-25T12:40:43.501Z,11.33
2016-10-25T12:41:43.517Z,11.44
2016-10-25T12:42:43.538Z,11.43
2016-10-25T12:43:43.555Z,11.44
2016-10-25T12:44:58.504Z,11.49
2016-10-25T12:45:43.595Z,11.52
2016-10-25T12:46:43.622Z,11.55
2016-10-25T12:47:43.649Z,11.49
2016-10-25T12:48:43.702Z,11.44
2016-10-25T12:49:43.690Z,11.33
2016-10-25T12:50:43.713Z,11.32
2016-10-25T12:51:43.740Z,11.25
2016-10-25T12:52:43.762Z,11.25
2016-10-25T12:53:43.779Z,11.32
2016-10-25T12:54:43.799Z,11.32
2016-10-25T12:55:43.854Z,11.32
2016-10-25T12:56:43.844Z,11.22
2016-10-25T12:57:58.788Z,11.37
2016-10-25T12:58:43.895Z,11.22
2016-10-25T12:59:58.828Z,11.22
2016-10-25T13:00:43.937Z,11.24
2016-10-25T13:01:43.957Z,11.21
2016-10-25T13:02:43.981Z,11.32
2016-10-25T13:03:44.313Z,11.32
2016-10-25T13:04:44.015Z,11.29
2016-10-25T13:05:44.044Z,11.35
2016-10-25T13:06:44.072Z,11.27
2016-10-25T13:07:44.091Z,11.35
2016-10-25T13:08:44.462Z,11.39
2016-10-25T13:09:44.129Z,11.37
2016-10-25T13:10:44.155Z,11.21
2016-10-25T13:11:44.215Z,11.35
2016-10-25T13:12:59.120Z,11.29
2016-10-25T13:13:44.228Z,11.24
2016-10-25T13:14:44.250Z,11.24
2016-10-25T13:15:44.301Z,11.29
2016-10-25T13:16:44.285Z,11.37
2016-10-25T13:17:44.309Z,11.33
2016-10-25T13:18:44.335Z,11.35
2016-10-25T13:19:44.353Z,11.35
2016-10-25T13:20:44.378Z,11.29
2016-10-25T13:21:44.401Z,11.25
2016-10-25T13:22:44.411Z,11.29
2016-10-25T13:23:44.442Z,11.37
2016-10-25T13:24:44.484Z,11.32
2016-10-25T13:25:44.533Z,11.35
2016-10-25T13:27:44.530Z,11.22
2016-10-25T13:28:59.470Z,11.32
2016-10-25T13:29:44.573Z,11.36
2016-10-25T13:30:44.610Z,11.24
2016-10-25T13:31:59.544Z,11.37
2016-10-25T13:32:44.637Z,11.4
2016-10-25T13:33:44.665Z,11.39
2016-10-25T13:34:44.683Z,11.28
2016-10-25T13:35:44.708Z,11.27
2016-10-25T13:36:45.027Z,11.29
2016-10-25T13:37:44.757Z,11.29
2016-10-25T13:38:44.770Z,11.35
2016-10-25T13:39:44.787Z,11.32
2016-10-25T13:40:44.815Z,11.29
2016-10-25T13:41:44.833Z,11.35
2016-10-25T13:42:44.937Z,11.27
2016-10-25T13:43:44.880Z,11.27
2016-10-25T13:44:44.909Z,11.27
2016-10-25T13:45:59.878Z,11.21